sensor_id;sensor_type;location;lat;lon;timestamp;temperature;humidity
13205;DHT22;6667;52.634;9.226;2022-07-05T06:37:21;23.50;99.90
13205;DHT22;6667;52.634;9.226;2022-07-05T06:39:48;23.60;99.90
13205;DHT22;6667;52.634;9.226;2022-07-05T06:42:15;23.20;99.90
13205;DHT22;6667;52.634;9.226;2022-07-05T06:44:42;23.00;99.90
13205;DHT22;6667;52.634;9.226;2022-07-05T06:47:09;22.60;99.90
13205;DHT22;6667;52.634;9.226;2022-07-05T06:49:36;23.20;99.90
13205;DHT22;6667;52.634;9.226;2022-07-05T06:52:03;24.10;99.90
13205;DHT22;6667;52.634;9.226;2022-07-05T06:54:31;24.30;99.90
13205;DHT22;6667;52.634;9.226;2022-07-05T06:56:58;24.40;99.90
13205;DHT22;6667;52.634;9.226;2022-07-05T06:59:24;24.40;99.90
13205;DHT22;6667;52.634;9.226;2022-07-05T07:01:51;25.10;99.90
13205;DHT22;6667;52.634;9.226;2022-07-05T07:04:17;25.20;99.90
13205;DHT22;6667;52.634;9.226;2022-07-05T07:06:44;25.60;99.90
13205;DHT22;6667;52.634;9.226;2022-07-05T07:09:11;25.40;99.90
13205;DHT22;6667;52.634;9.226;2022-07-05T07:11:48;26.00;99.90
13205;DHT22;6667;52.634;9.226;2022-07-05T07:14:15;25.70;99.90
13205;DHT22;6667;52.634;9.226;2022-07-05T07:16:41;25.80;99.90
13205;DHT22;6667;52.634;9.226;2022-07-05T07:19:08;26.70;99.90
13205;DHT22;6667;52.634;9.226;2022-07-05T07:21:35;26.90;99.90
13205;DHT22;6667;52.634;9.226;2022-07-05T07:24:01;26.30;99.90
13205;DHT22;6667;52.634;9.226;2022-07-05T07:26:28;26.70;99.90
13205;DHT22;6667;52.634;9.226;2022-07-05T07:28:56;27.30;99.90
13205;DHT22;6667;52.634;9.226;2022-07-05T07:31:23;27.30;99.90
13205;DHT22;6667;52.634;9.226;2022-07-05T07:33:50;27.60;99.90
13205;DHT22;6667;52.634;9.226;2022-07-05T07:36:17;27.80;99.90
13205;DHT22;6667;52.634;9.226;2022-07-05T07:41:11;28.10;99.90
13205;DHT22;6667;52.634;9.226;2022-07-05T07:43:37;28.40;99.90
13205;DHT22;6667;52.634;9.226;2022-07-05T07:46:05;28.80;99.90
13205;DHT22;6667;52.634;9.226;2022-07-05T07:48:32;28.70;99.90
13205;DHT22;6667;52.634;9.226;2022-07-05T07:50:58;28.80;99.90
13205;DHT22;6667;52.634;9.226;2022-07-05T07:53:25;28.40;99.90
13205;DHT22;6667;52.634;9.226;2022-07-05T07:55:51;28.40;99.90
13205;DHT22;6667;52.634;9.226;2022-07-05T07:58:18;28.80;99.90
13205;DHT22;6667;52.634;9.226;2022-07-05T08:00:45;28.30;99.90
13205;DHT22;6667;52.634;9.226;2022-07-05T08:03:12;29.10;99.90
13205;DHT22;6667;52.634;9.226;2022-07-05T08:05:39;29.70;99.90
13205;DHT22;6667;52.634;9.226;2022-07-05T08:08:06;29.90;99.90
13205;DHT22;6667;52.634;9.226;2022-07-05T08:10:32;29.60;99.90
13205;DHT22;6667;52.634;9.226;2022-07-05T08:12:59;29.20;99.90
13205;DHT22;6667;52.634;9.226;2022-07-05T08:15:25;29.20;99.90
13205;DHT22;6667;52.634;9.226;2022-07-05T08:17:52;28.80;99.90
13205;DHT22;6667;52.634;9.226;2022-07-05T08:20:37;28.60;99.90
13205;DHT22;6667;52.634;9.226;2022-07-05T08:23:21;29.30;99.90
13205;DHT22;6667;52.634;9.226;2022-07-05T08:25:48;28.50;99.90
13205;DHT22;6667;52.634;9.226;2022-07-05T08:28:15;28.40;99.90
13205;DHT22;6667;52.634;9.226;2022-07-05T08:30:41;29.10;99.90
13205;DHT22;6667;52.634;9.226;2022-07-05T08:33:08;28.30;99.90
13205;DHT22;6667;52.634;9.226;2022-07-05T08:35:34;27.80;99.90
13205;DHT22;6667;52.634;9.226;2022-07-05T08:38:02;28.70;99.90
13205;DHT22;6667;52.634;9.226;2022-07-05T08:40:29;29.30;99.90
13205;DHT22;6667;52.634;9.226;2022-07-05T08:42:58;29.60;99.90
13205;DHT22;6667;52.634;9.226;2022-07-05T08:45:26;29.20;99.90
13205;DHT22;6667;52.634;9.226;2022-07-05T08:47:55;29.10;99.90
13205;DHT22;6667;52.634;9.226;2022-07-05T08:50:25;28.80;99.90
13205;DHT22;6667;52.634;9.226;2022-07-05T08:52:52;29.10;99.90
13205;DHT22;6667;52.634;9.226;2022-07-05T08:55:23;29.60;99.90
13205;DHT22;6667;52.634;9.226;2022-07-05T08:57:50;29.20;99.90
13205;DHT22;6667;52.634;9.226;2022-07-05T09:00:17;29.00;99.90
13205;DHT22;6667;52.634;9.226;2022-07-05T09:02:44;29.60;99.90
13205;DHT22;6667;52.634;9.226;2022-07-05T09:05:12;30.30;99.90
13205;DHT22;6667;52.634;9.226;2022-07-05T09:07:55;30.00;99.90
13205;DHT22;6667;52.634;9.226;2022-07-05T09:10:27;29.60;99.90
13205;DHT22;6667;52.634;9.226;2022-07-05T09:12:54;28.70;99.90
13205;DHT22;6667;52.634;9.226;2022-07-05T09:15:21;29.00;99.90
13205;DHT22;6667;52.634;9.226;2022-07-05T09:17:47;28.70;99.90
13205;DHT22;6667;52.634;9.226;2022-07-05T09:20:16;28.30;99.90
13205;DHT22;6667;52.634;9.226;2022-07-05T09:22:47;27.30;99.90
13205;DHT22;6667;52.634;9.226;2022-07-05T09:25:16;28.70;99.90
13205;DHT22;6667;52.634;9.226;2022-07-05T09:27:52;29.70;99.90
13205;DHT22;6667;52.634;9.226;2022-07-05T09:30:26;30.10;99.90
13205;DHT22;6667;52.634;9.226;2022-07-05T09:33:01;30.10;99.90
13205;DHT22;6667;52.634;9.226;2022-07-05T09:35:28;29.20;99.90
13205;DHT22;6667;52.634;9.226;2022-07-05T09:37:55;28.30;99.90
13205;DHT22;6667;52.634;9.226;2022-07-05T09:40:21;27.90;99.90
13205;DHT22;6667;52.634;9.226;2022-07-05T09:42:49;27.60;99.90
13205;DHT22;6667;52.634;9.226;2022-07-05T09:45:21;28.10;99.90
13205;DHT22;6667;52.634;9.226;2022-07-05T09:47:49;29.00;99.90
13205;DHT22;6667;52.634;9.226;2022-07-05T09:50:32;29.40;99.90
13205;DHT22;6667;52.634;9.226;2022-07-05T09:52:59;28.50;99.90
13205;DHT22;6667;52.634;9.226;2022-07-05T09:55:26;27.90;99.90
13205;DHT22;6667;52.634;9.226;2022-07-05T09:57:54;27.70;99.90
13205;DHT22;6667;52.634;9.226;2022-07-05T10:00:22;28.80;99.90
13205;DHT22;6667;52.634;9.226;2022-07-05T10:02:50;29.50;99.90
13205;DHT22;6667;52.634;9.226;2022-07-05T10:05:18;30.00;99.90
13205;DHT22;6667;52.634;9.226;2022-07-05T10:07:46;29.70;99.90
13205;DHT22;6667;52.634;9.226;2022-07-05T10:10:14;29.50;99.90
13205;DHT22;6667;52.634;9.226;2022-07-05T10:12:42;29.60;99.90
13205;DHT22;6667;52.634;9.226;2022-07-05T10:15:12;29.10;99.90
13205;DHT22;6667;52.634;9.226;2022-07-05T10:17:41;28.40;99.90
13205;DHT22;6667;52.634;9.226;2022-07-05T10:20:17;28.00;99.90
13205;DHT22;6667;52.634;9.226;2022-07-05T10:22:45;27.80;99.90
13205;DHT22;6667;52.634;9.226;2022-07-05T10:25:13;28.40;99.90
13205;DHT22;6667;52.634;9.226;2022-07-05T10:27:40;29.90;99.90
13205;DHT22;6667;52.634;9.226;2022-07-05T10:30:07;29.00;99.90
13205;DHT22;6667;52.634;9.226;2022-07-05T10:32:36;28.60;99.90
13205;DHT22;6667;52.634;9.226;2022-07-05T10:35:05;27.90;99.90
13205;DHT22;6667;52.634;9.226;2022-07-05T10:37:34;27.90;99.90
13205;DHT22;6667;52.634;9.226;2022-07-05T10:40:02;27.70;99.90
13205;DHT22;6667;52.634;9.226;2022-07-05T10:42:33;25.80;99.90
13205;DHT22;6667;52.634;9.226;2022-07-05T10:45:01;25.80;99.90
13205;DHT22;6667;52.634;9.226;2022-07-05T10:47:28;26.40;99.90
13205;DHT22;6667;52.634;9.226;2022-07-05T10:50:02;26.80;99.90
13205;DHT22;6667;52.634;9.226;2022-07-05T10:52:29;27.90;99.90
13205;DHT22;6667;52.634;9.226;2022-07-05T10:55:21;28.60;99.90
13205;DHT22;6667;52.634;9.226;2022-07-05T10:58:22;28.10;99.90
13205;DHT22;6667;52.634;9.226;2022-07-05T11:04:17;27.40;99.90
13205;DHT22;6667;52.634;9.226;2022-07-05T11:06:46;27.20;99.90
13205;DHT22;6667;52.634;9.226;2022-07-05T11:09:19;26.50;99.90
13205;DHT22;6667;52.634;9.226;2022-07-05T11:11:47;26.80;99.90
13205;DHT22;6667;52.634;9.226;2022-07-05T11:14:37;26.40;99.90
13205;DHT22;6667;52.634;9.226;2022-07-05T11:17:21;26.60;99.90
13205;DHT22;6667;52.634;9.226;2022-07-05T11:20:08;26.70;99.90
13205;DHT22;6667;52.634;9.226;2022-07-05T11:22:39;26.60;99.90
13205;DHT22;6667;52.634;9.226;2022-07-05T11:25:09;26.70;99.90
13205;DHT22;6667;52.634;9.226;2022-07-05T11:27:36;27.00;99.90
13205;DHT22;6667;52.634;9.226;2022-07-05T11:30:25;26.10;99.90
13205;DHT22;6667;52.634;9.226;2022-07-05T11:32:51;26.20;99.90
13205;DHT22;6667;52.634;9.226;2022-07-05T11:35:19;26.40;99.90
13205;DHT22;6667;52.634;9.226;2022-07-05T11:38:06;26.10;99.90
13205;DHT22;6667;52.634;9.226;2022-07-05T11:40:34;26.50;99.90
13205;DHT22;6667;52.634;9.226;2022-07-05T11:43:04;27.30;99.90
13205;DHT22;6667;52.634;9.226;2022-07-05T11:45:34;27.40;99.90
13205;DHT22;6667;52.634;9.226;2022-07-05T11:48:01;26.90;99.90
13205;DHT22;6667;52.634;9.226;2022-07-05T11:50:31;26.20;99.90
13205;DHT22;6667;52.634;9.226;2022-07-05T11:52:59;25.90;99.90
13205;DHT22;6667;52.634;9.226;2022-07-05T11:55:27;25.90;99.90
13205;DHT22;6667;52.634;9.226;2022-07-05T11:57:54;26.00;99.90
13205;DHT22;6667;52.634;9.226;2022-07-05T12:00:28;26.20;99.90
13205;DHT22;6667;52.634;9.226;2022-07-05T12:02:58;26.10;99.90
13205;DHT22;6667;52.634;9.226;2022-07-05T12:05:30;25.60;99.90
13205;DHT22;6667;52.634;9.226;2022-07-05T12:07:58;25.60;99.90
13205;DHT22;6667;52.634;9.226;2022-07-05T12:10:26;25.40;99.90
13205;DHT22;6667;52.634;9.226;2022-07-05T12:13:10;26.00;99.90
13205;DHT22;6667;52.634;9.226;2022-07-05T12:15:39;26.50;99.90
13205;DHT22;6667;52.634;9.226;2022-07-05T12:18:08;26.80;99.90
13205;DHT22;6667;52.634;9.226;2022-07-05T12:20:39;26.80;99.90
13205;DHT22;6667;52.634;9.226;2022-07-05T12:23:07;26.50;99.90
13205;DHT22;6667;52.634;9.226;2022-07-05T12:25:34;26.10;99.90
13205;DHT22;6667;52.634;9.226;2022-07-05T12:28:03;25.80;99.90
13205;DHT22;6667;52.634;9.226;2022-07-05T12:30:32;25.90;99.90
13205;DHT22;6667;52.634;9.226;2022-07-05T12:33:01;26.10;99.90
13205;DHT22;6667;52.634;9.226;2022-07-05T12:35:35;27.00;99.90
13205;DHT22;6667;52.634;9.226;2022-07-05T12:38:07;26.30;99.90
13205;DHT22;6667;52.634;9.226;2022-07-05T12:40:36;26.70;99.90
13205;DHT22;6667;52.634;9.226;2022-07-05T12:43:06;26.80;99.90
13205;DHT22;6667;52.634;9.226;2022-07-05T12:45:33;26.40;99.90
13205;DHT22;6667;52.634;9.226;2022-07-05T12:48:02;26.40;99.90
13205;DHT22;6667;52.634;9.226;2022-07-05T12:50:48;26.40;99.90
13205;DHT22;6667;52.634;9.226;2022-07-05T12:53:17;25.40;99.90
13205;DHT22;6667;52.634;9.226;2022-07-05T12:56:03;25.30;99.90
13205;DHT22;6667;52.634;9.226;2022-07-05T12:58:50;25.20;99.90
13205;DHT22;6667;52.634;9.226;2022-07-05T13:01:24;24.50;99.90
13205;DHT22;6667;52.634;9.226;2022-07-05T13:03:58;25.00;99.90
13205;DHT22;6667;52.634;9.226;2022-07-05T13:06:41;25.60;99.90
13205;DHT22;6667;52.634;9.226;2022-07-05T13:09:08;25.90;99.90
13205;DHT22;6667;52.634;9.226;2022-07-05T13:11:35;26.10;99.90
13205;DHT22;6667;52.634;9.226;2022-07-05T13:14:01;25.30;99.90
13205;DHT22;6667;52.634;9.226;2022-07-05T13:16:28;25.70;99.90
13205;DHT22;6667;52.634;9.226;2022-07-05T13:19:05;26.10;99.90
13205;DHT22;6667;52.634;9.226;2022-07-05T13:21:31;26.20;99.90
13205;DHT22;6667;52.634;9.226;2022-07-05T13:23:59;26.40;99.90
13205;DHT22;6667;52.634;9.226;2022-07-05T13:26:26;26.20;99.90
13205;DHT22;6667;52.634;9.226;2022-07-05T13:28:53;25.20;99.90
13205;DHT22;6667;52.634;9.226;2022-07-05T13:31:20;24.90;99.90
13205;DHT22;6667;52.634;9.226;2022-07-05T13:33:47;25.70;99.90
13205;DHT22;6667;52.634;9.226;2022-07-05T13:36:13;26.30;99.90
13205;DHT22;6667;52.634;9.226;2022-07-05T13:38:40;26.60;99.90
13205;DHT22;6667;52.634;9.226;2022-07-05T13:41:08;26.60;99.90
13205;DHT22;6667;52.634;9.226;2022-07-05T13:43:35;26.00;99.90
13205;DHT22;6667;52.634;9.226;2022-07-05T13:46:03;26.00;99.90
13205;DHT22;6667;52.634;9.226;2022-07-05T13:48:29;26.70;99.90
13205;DHT22;6667;52.634;9.226;2022-07-05T13:50:56;27.00;99.90
13205;DHT22;6667;52.634;9.226;2022-07-05T13:53:23;26.70;99.90
13205;DHT22;6667;52.634;9.226;2022-07-05T13:55:49;26.60;99.90
13205;DHT22;6667;52.634;9.226;2022-07-05T13:58:17;26.50;99.90
13205;DHT22;6667;52.634;9.226;2022-07-05T14:00:44;27.20;99.90
13205;DHT22;6667;52.634;9.226;2022-07-05T14:03:10;26.90;99.90
13205;DHT22;6667;52.634;9.226;2022-07-05T14:05:37;26.90;99.90
13205;DHT22;6667;52.634;9.226;2022-07-05T14:08:04;26.90;99.90
13205;DHT22;6667;52.634;9.226;2022-07-05T14:10:31;27.00;99.90
13205;DHT22;6667;52.634;9.226;2022-07-05T14:12:57;26.80;99.90
13205;DHT22;6667;52.634;9.226;2022-07-05T14:15:25;27.10;99.90
13205;DHT22;6667;52.634;9.226;2022-07-05T14:17:52;27.30;99.90
13205;DHT22;6667;52.634;9.226;2022-07-05T14:20:18;27.20;99.90
13205;DHT22;6667;52.634;9.226;2022-07-05T14:22:45;27.10;99.90
13205;DHT22;6667;52.634;9.226;2022-07-05T14:25:12;26.90;99.90
13205;DHT22;6667;52.634;9.226;2022-07-05T14:27:39;27.10;99.90
13205;DHT22;6667;52.634;9.226;2022-07-05T14:30:06;27.00;99.90
13205;DHT22;6667;52.634;9.226;2022-07-05T14:32:36;27.00;99.90
13205;DHT22;6667;52.634;9.226;2022-07-05T14:35:04;26.90;99.90
13205;DHT22;6667;52.634;9.226;2022-07-05T14:37:30;27.00;99.90
13205;DHT22;6667;52.634;9.226;2022-07-05T14:39:57;26.90;99.90
13205;DHT22;6667;52.634;9.226;2022-07-05T14:42:23;27.20;99.90
13205;DHT22;6667;52.634;9.226;2022-07-05T14:44:50;26.90;99.90
13205;DHT22;6667;52.634;9.226;2022-07-05T14:47:17;27.10;99.90
13205;DHT22;6667;52.634;9.226;2022-07-05T14:49:45;27.10;99.90
13205;DHT22;6667;52.634;9.226;2022-07-05T14:52:11;26.80;99.90
13205;DHT22;6667;52.634;9.226;2022-07-05T14:54:38;26.60;99.90
13205;DHT22;6667;52.634;9.226;2022-07-05T14:57:05;26.60;99.90
13205;DHT22;6667;52.634;9.226;2022-07-05T14:59:32;26.40;99.90
13205;DHT22;6667;52.634;9.226;2022-07-05T15:01:58;26.20;99.90
13205;DHT22;6667;52.634;9.226;2022-07-05T15:04:25;26.40;99.90
13205;DHT22;6667;52.634;9.226;2022-07-05T15:06:53;26.60;99.90
13205;DHT22;6667;52.634;9.226;2022-07-05T15:09:19;26.80;99.90
13205;DHT22;6667;52.634;9.226;2022-07-05T15:11:47;26.60;99.90
13205;DHT22;6667;52.634;9.226;2022-07-05T15:14:13;26.40;99.90
13205;DHT22;6667;52.634;9.226;2022-07-05T15:16:40;26.30;99.90
13205;DHT22;6667;52.634;9.226;2022-07-05T15:19:07;25.80;99.90
13205;DHT22;6667;52.634;9.226;2022-07-05T15:21:34;25.80;99.90
13205;DHT22;6667;52.634;9.226;2022-07-05T15:24:02;25.50;99.90
13205;DHT22;6667;52.634;9.226;2022-07-05T15:26:29;24.90;99.90
13205;DHT22;6667;52.634;9.226;2022-07-05T15:29:02;24.90;99.90
13205;DHT22;6667;52.634;9.226;2022-07-05T15:31:29;25.10;99.90
13205;DHT22;6667;52.634;9.226;2022-07-05T15:33:56;25.10;99.90
13205;DHT22;6667;52.634;9.226;2022-07-05T15:36:23;24.90;99.90
13205;DHT22;6667;52.634;9.226;2022-07-05T15:38:50;25.20;99.90
13205;DHT22;6667;52.634;9.226;2022-07-05T15:41:19;25.30;99.90
13205;DHT22;6667;52.634;9.226;2022-07-05T15:43:45;25.50;99.90
13205;DHT22;6667;52.634;9.226;2022-07-05T15:46:13;25.30;99.90
13205;DHT22;6667;52.634;9.226;2022-07-05T15:48:40;24.90;99.90
13205;DHT22;6667;52.634;9.226;2022-07-05T15:51:07;24.80;99.90
13205;DHT22;6667;52.634;9.226;2022-07-05T15:53:33;24.90;99.90
13205;DHT22;6667;52.634;9.226;2022-07-05T15:56:00;25.20;99.90
13205;DHT22;6667;52.634;9.226;2022-07-05T15:58:29;25.00;99.90
13205;DHT22;6667;52.634;9.226;2022-07-05T16:00:57;24.60;99.90
13205;DHT22;6667;52.634;9.226;2022-07-05T16:03:24;24.60;99.90
13205;DHT22;6667;52.634;9.226;2022-07-05T16:05:51;24.70;99.90
13205;DHT22;6667;52.634;9.226;2022-07-05T16:08:20;24.10;99.90
13205;DHT22;6667;52.634;9.226;2022-07-05T16:10:47;23.70;99.90
13205;DHT22;6667;52.634;9.226;2022-07-05T16:13:13;23.80;99.90
13205;DHT22;6667;52.634;9.226;2022-07-05T16:15:43;23.90;99.90
13205;DHT22;6667;52.634;9.226;2022-07-05T16:18:27;23.90;99.90
13205;DHT22;6667;52.634;9.226;2022-07-05T16:20:54;23.80;99.90
13205;DHT22;6667;52.634;9.226;2022-07-05T16:23:25;23.80;99.90
13205;DHT22;6667;52.634;9.226;2022-07-05T16:25:52;23.90;99.90
13205;DHT22;6667;52.634;9.226;2022-07-05T16:28:19;23.80;99.90
13205;DHT22;6667;52.634;9.226;2022-07-05T16:30:47;23.80;99.90
13205;DHT22;6667;52.634;9.226;2022-07-05T16:33:14;23.90;99.90
13205;DHT22;6667;52.634;9.226;2022-07-05T16:35:40;24.00;99.90
13205;DHT22;6667;52.634;9.226;2022-07-05T16:38:07;23.50;99.90
13205;DHT22;6667;52.634;9.226;2022-07-05T16:40:34;23.50;99.90
13205;DHT22;6667;52.634;9.226;2022-07-05T16:43:01;23.30;99.90
13205;DHT22;6667;52.634;9.226;2022-07-05T16:45:28;23.40;99.90
13205;DHT22;6667;52.634;9.226;2022-07-05T16:47:57;23.60;99.90
13205;DHT22;6667;52.634;9.226;2022-07-05T16:50:23;23.70;99.90
13205;DHT22;6667;52.634;9.226;2022-07-05T16:52:50;23.30;99.90
13205;DHT22;6667;52.634;9.226;2022-07-05T16:55:16;23.00;99.90
13205;DHT22;6667;52.634;9.226;2022-07-05T16:57:43;22.90;99.90
13205;DHT22;6667;52.634;9.226;2022-07-05T17:00:11;22.90;99.90
13205;DHT22;6667;52.634;9.226;2022-07-05T17:02:38;22.90;99.90
13205;DHT22;6667;52.634;9.226;2022-07-05T17:05:06;22.60;99.90
13205;DHT22;6667;52.634;9.226;2022-07-05T17:07:33;22.70;99.90
13205;DHT22;6667;52.634;9.226;2022-07-05T17:10:00;22.80;99.90
13205;DHT22;6667;52.634;9.226;2022-07-05T17:12:27;22.80;99.90
13205;DHT22;6667;52.634;9.226;2022-07-05T17:14:56;22.70;99.90
13205;DHT22;6667;52.634;9.226;2022-07-05T17:17:22;22.70;99.90
13205;DHT22;6667;52.634;9.226;2022-07-05T17:19:49;22.60;99.90
13205;DHT22;6667;52.634;9.226;2022-07-05T17:22:17;22.30;99.90
13205;DHT22;6667;52.634;9.226;2022-07-05T17:24:43;22.30;99.90
13205;DHT22;6667;52.634;9.226;2022-07-05T17:27:10;22.30;99.90
13205;DHT22;6667;52.634;9.226;2022-07-05T17:29:37;22.20;99.90
13205;DHT22;6667;52.634;9.226;2022-07-05T17:32:04;22.00;99.90
13205;DHT22;6667;52.634;9.226;2022-07-05T17:34:31;21.80;99.90
13205;DHT22;6667;52.634;9.226;2022-07-05T17:36:58;21.70;99.90
13205;DHT22;6667;52.634;9.226;2022-07-05T17:39:26;21.60;99.90
13205;DHT22;6667;52.634;9.226;2022-07-05T17:41:52;21.50;99.90
13205;DHT22;6667;52.634;9.226;2022-07-05T17:44:19;21.70;99.90
13205;DHT22;6667;52.634;9.226;2022-07-05T17:46:45;21.60;99.90
13205;DHT22;6667;52.634;9.226;2022-07-05T17:49:12;21.50;99.90
13205;DHT22;6667;52.634;9.226;2022-07-05T17:51:39;21.40;99.90
13205;DHT22;6667;52.634;9.226;2022-07-05T17:54:06;21.30;99.90
13205;DHT22;6667;52.634;9.226;2022-07-05T17:56:34;21.40;99.90
13205;DHT22;6667;52.634;9.226;2022-07-05T17:59:00;21.30;99.90
13205;DHT22;6667;52.634;9.226;2022-07-05T18:01:27;21.30;99.90
13205;DHT22;6667;52.634;9.226;2022-07-05T18:03:54;21.30;99.90
13205;DHT22;6667;52.634;9.226;2022-07-05T18:06:20;21.30;99.90
13205;DHT22;6667;52.634;9.226;2022-07-05T18:08:47;21.10;99.90
13205;DHT22;6667;52.634;9.226;2022-07-05T18:11:15;20.90;99.90
13205;DHT22;6667;52.634;9.226;2022-07-05T18:13:43;20.90;99.90
13205;DHT22;6667;52.634;9.226;2022-07-05T18:16:10;20.60;99.90
13205;DHT22;6667;52.634;9.226;2022-07-05T18:18:36;20.50;99.90
13205;DHT22;6667;52.634;9.226;2022-07-05T18:21:03;20.50;99.90
13205;DHT22;6667;52.634;9.226;2022-07-05T18:23:29;20.50;99.90
13205;DHT22;6667;52.634;9.226;2022-07-05T18:25:58;20.60;99.90
13205;DHT22;6667;52.634;9.226;2022-07-05T18:28:26;20.60;99.90
13205;DHT22;6667;52.634;9.226;2022-07-05T18:30:54;20.50;99.90
13205;DHT22;6667;52.634;9.226;2022-07-05T18:33:21;20.50;99.90
13205;DHT22;6667;52.634;9.226;2022-07-05T18:35:49;20.40;99.90
13205;DHT22;6667;52.634;9.226;2022-07-05T18:38:17;20.50;99.90
13205;DHT22;6667;52.634;9.226;2022-07-05T18:40:44;20.50;99.90
13205;DHT22;6667;52.634;9.226;2022-07-05T18:43:11;20.40;99.90
13205;DHT22;6667;52.634;9.226;2022-07-05T18:45:38;20.30;99.90
13205;DHT22;6667;52.634;9.226;2022-07-05T18:48:10;20.20;99.90
13205;DHT22;6667;52.634;9.226;2022-07-05T18:50:38;20.10;99.90
13205;DHT22;6667;52.634;9.226;2022-07-05T18:53:07;20.10;99.90
13205;DHT22;6667;52.634;9.226;2022-07-05T18:55:37;20.00;99.90
13205;DHT22;6667;52.634;9.226;2022-07-05T18:58:09;19.90;99.90
13205;DHT22;6667;52.634;9.226;2022-07-05T19:00:38;19.90;99.90
13205;DHT22;6667;52.634;9.226;2022-07-05T19:03:10;19.80;99.90
13205;DHT22;6667;52.634;9.226;2022-07-05T19:05:38;19.70;99.90
13205;DHT22;6667;52.634;9.226;2022-07-05T19:08:26;19.70;99.90
13205;DHT22;6667;52.634;9.226;2022-07-05T19:11:14;19.60;99.90
13205;DHT22;6667;52.634;9.226;2022-07-05T19:13:58;19.50;99.90
13205;DHT22;6667;52.634;9.226;2022-07-05T19:16:26;19.40;99.90
13205;DHT22;6667;52.634;9.226;2022-07-05T19:18:58;19.40;99.90
13205;DHT22;6667;52.634;9.226;2022-07-05T19:21:26;19.40;99.90
13205;DHT22;6667;52.634;9.226;2022-07-05T19:23:56;19.40;99.90
13205;DHT22;6667;52.634;9.226;2022-07-05T19:26:26;19.40;99.90
13205;DHT22;6667;52.634;9.226;2022-07-05T19:28:54;19.30;99.90
13205;DHT22;6667;52.634;9.226;2022-07-05T19:31:23;19.20;99.90
13205;DHT22;6667;52.634;9.226;2022-07-05T19:33:51;19.30;99.90
13205;DHT22;6667;52.634;9.226;2022-07-05T19:36:20;19.30;99.90
13205;DHT22;6667;52.634;9.226;2022-07-05T19:38:49;19.20;99.90
13205;DHT22;6667;52.634;9.226;2022-07-05T19:41:17;19.20;99.90
13205;DHT22;6667;52.634;9.226;2022-07-05T19:43:45;19.20;99.90
13205;DHT22;6667;52.634;9.226;2022-07-05T19:46:13;19.10;99.90
13205;DHT22;6667;52.634;9.226;2022-07-05T19:48:41;19.10;99.90
13205;DHT22;6667;52.634;9.226;2022-07-05T19:51:10;18.90;99.90
13205;DHT22;6667;52.634;9.226;2022-07-05T19:53:40;18.90;99.90
13205;DHT22;6667;52.634;9.226;2022-07-05T19:56:08;18.90;99.90
13205;DHT22;6667;52.634;9.226;2022-07-05T19:58:36;18.70;99.90
13205;DHT22;6667;52.634;9.226;2022-07-05T20:01:04;18.70;99.90
13205;DHT22;6667;52.634;9.226;2022-07-05T20:03:32;18.60;99.90
13205;DHT22;6667;52.634;9.226;2022-07-05T20:06:01;18.60;99.90
13205;DHT22;6667;52.634;9.226;2022-07-05T20:08:35;18.60;99.90
13205;DHT22;6667;52.634;9.226;2022-07-05T20:11:05;18.50;99.90
13205;DHT22;6667;52.634;9.226;2022-07-05T20:13:32;18.60;99.90
13205;DHT22;6667;52.634;9.226;2022-07-05T20:16:01;18.50;99.90
13205;DHT22;6667;52.634;9.226;2022-07-05T20:18:31;18.40;99.90
13205;DHT22;6667;52.634;9.226;2022-07-05T20:20:58;18.30;99.90
13205;DHT22;6667;52.634;9.226;2022-07-05T20:23:26;18.30;99.90
13205;DHT22;6667;52.634;9.226;2022-07-05T20:25:58;18.30;99.90
13205;DHT22;6667;52.634;9.226;2022-07-05T20:28:32;18.30;99.90
13205;DHT22;6667;52.634;9.226;2022-07-05T20:30:59;18.20;99.90
13205;DHT22;6667;52.634;9.226;2022-07-05T20:33:27;18.10;99.90
13205;DHT22;6667;52.634;9.226;2022-07-05T20:35:55;18.10;99.90
13205;DHT22;6667;52.634;9.226;2022-07-05T20:38:24;18.00;99.90
13205;DHT22;6667;52.634;9.226;2022-07-05T20:40:51;18.00;99.90
13205;DHT22;6667;52.634;9.226;2022-07-05T20:43:20;18.00;99.90
13205;DHT22;6667;52.634;9.226;2022-07-05T20:45:52;17.90;99.90
13205;DHT22;6667;52.634;9.226;2022-07-05T20:48:19;17.70;99.90
13205;DHT22;6667;52.634;9.226;2022-07-05T20:50:46;17.80;99.90
13205;DHT22;6667;52.634;9.226;2022-07-05T20:53:13;17.80;99.90
13205;DHT22;6667;52.634;9.226;2022-07-05T20:55:40;17.80;99.90
13205;DHT22;6667;52.634;9.226;2022-07-05T20:58:06;17.60;99.90
13205;DHT22;6667;52.634;9.226;2022-07-05T21:00:33;17.70;99.90
13205;DHT22;6667;52.634;9.226;2022-07-05T21:03:01;17.50;99.90
13205;DHT22;6667;52.634;9.226;2022-07-05T21:05:28;17.40;99.90
13205;DHT22;6667;52.634;9.226;2022-07-05T21:07:55;17.30;99.90
13205;DHT22;6667;52.634;9.226;2022-07-05T21:10:22;17.30;99.90
13205;DHT22;6667;52.634;9.226;2022-07-05T21:12:48;17.20;99.90
13205;DHT22;6667;52.634;9.226;2022-07-05T21:15:15;17.30;99.90
13205;DHT22;6667;52.634;9.226;2022-07-05T21:17:45;17.30;99.90
13205;DHT22;6667;52.634;9.226;2022-07-05T21:20:13;17.20;99.90
13205;DHT22;6667;52.634;9.226;2022-07-05T21:22:43;17.20;99.90
13205;DHT22;6667;52.634;9.226;2022-07-05T21:25:10;17.10;99.90
13205;DHT22;6667;52.634;9.226;2022-07-05T21:27:38;17.20;99.90
13205;DHT22;6667;52.634;9.226;2022-07-05T21:30:27;17.20;99.90
13205;DHT22;6667;52.634;9.226;2022-07-05T21:32:55;17.10;99.90
13205;DHT22;6667;52.634;9.226;2022-07-05T21:35:24;17.10;99.90
13205;DHT22;6667;52.634;9.226;2022-07-05T21:37:51;17.20;99.90
